Time;durP1;ratioP1;P1;durP2;ratioP2;P2;SDS_P1;SDS_P2;PMS_P1;PMS_P2;Temp;Humidity;BMP_temperature;BMP_pressure;BME280_temperature;BME280_humidity;BME280_pressure;Samples;Min_cycle;Max_cycle;Signal;HPM_P1;HPM_P2
2022/06/18 00:00:43;;;;;;;0.15;0.15;;;24.80;99.90;25.30;101821.00;;;;5098250;28;20191;-77
2022/06/18 00:03:27;;;;;;;0.10;0.10;;;24.80;99.90;25.90;101788.00;;;;5098174;28;20634;-77
2022/06/18 00:06:11;;;;;;;0.20;0.20;;;24.80;99.90;26.10;101831.00;;;;5081368;28;20172;-77
2022/06/18 00:08:55;;;;;;;0.10;0.10;;;25.00;99.90;25.20;101819.00;;;;5098156;28;20180;-77
2022/06/18 00:14:53;;;;;;;0.10;0.10;;;24.60;99.90;26.10;101821.00;;;;5100676;28;20188;-76
2022/06/18 00:17:37;;;;;;;0.10;0.10;;;24.80;99.90;25.90;101809.00;;;;5098182;28;20183;-76
2022/06/18 00:20:23;;;;;;;0.20;0.20;;;24.80;99.90;26.10;101818.00;;;;5097575;28;20195;-77
2022/06/18 00:22:58;;;;;;;0.10;0.10;;;24.90;99.90;26.00;101816.00;;;;5097580;28;20188;-77
2022/06/18 00:25:36;;;;;;;0.20;0.20;;;24.90;99.90;25.80;101809.00;;;;5097623;28;20198;-77
2022/06/18 00:28:13;;;;;;;1.08;0.75;;;24.80;99.90;25.90;101807.00;;;;5097550;28;20190;-77
2022/06/18 00:30:48;;;;;;;0.10;0.10;;;24.80;99.90;25.50;101800.00;;;;5080827;28;20182;-76
2022/06/18 00:33:35;;;;;;;0.10;0.10;;;24.60;99.90;25.90;101795.00;;;;5114459;28;20179;-77
2022/06/18 00:36:18;;;;;;;0.10;0.10;;;24.70;99.90;25.40;101802.00;;;;5098060;28;20269;-77
2022/06/18 00:39:04;;;;;;;0.10;0.10;;;24.60;99.90;25.00;101782.00;;;;5097445;28;20241;-77
2022/06/18 00:41:53;;;;;;;0.95;0.95;;;24.40;99.90;25.00;101790.00;;;;5097311;28;20168;-76
2022/06/18 00:44:38;;;;;;;0.43;0.43;;;24.30;99.90;24.90;101796.00;;;;5097569;28;20192;-77
2022/06/18 00:47:47;;;;;;;0.10;0.10;;;24.30;99.90;24.70;101782.00;;;;5097467;28;20203;-77
2022/06/18 00:50:39;;;;;;;0.30;0.30;;;24.20;99.90;25.30;101797.00;;;;5115573;28;20186;-77
2022/06/18 00:53:22;;;;;;;0.68;0.68;;;24.30;99.90;25.20;101761.00;;;;5103483;28;20211;-77
2022/06/18 00:56:04;;;;;;;0.60;0.60;;;24.40;99.90;24.40;101780.00;;;;5095706;28;20225;-77
2022/06/18 00:59:04;;;;;;;0.20;0.20;;;24.10;99.90;24.40;101783.00;;;;5097156;28;20262;-77
2022/06/18 01:01:54;;;;;;;0.30;0.30;;;24.00;99.90;24.60;101770.00;;;;5097395;28;20210;-76
2022/06/18 01:04:44;;;;;;;0.52;0.52;;;24.00;99.90;25.00;101768.00;;;;5079856;28;20191;-76
2022/06/18 01:07:32;;;;;;;0.22;0.22;;;24.10;99.90;25.50;101790.00;;;;5089640;28;20199;-77
2022/06/18 01:10:25;;;;;;;0.10;0.10;;;24.30;99.90;25.10;101789.00;;;;5096843;28;20276;-77
2022/06/18 01:13:13;;;;;;;0.52;0.52;;;24.20;99.90;24.70;101771.00;;;;5096438;28;20208;-77
2022/06/18 01:15:58;;;;;;;2.00;1.38;;;24.00;99.90;24.80;101783.00;;;;5097025;28;20168;-77
2022/06/18 01:18:41;;;;;;;0.70;0.70;;;24.00;99.90;24.00;101752.00;;;;5097143;28;20178;-77
2022/06/18 01:21:35;;;;;;;0.10;0.10;;;23.80;99.90;24.20;101720.00;;;;5096555;28;20170;-76
2022/06/18 01:24:30;;;;;;;0.30;0.30;;;23.60;99.90;24.20;101758.00;;;;5096511;28;20221;-78
2022/06/18 01:27:13;;;;;;;3.05;1.40;;;23.60;99.90;23.80;101760.00;;;;5097026;28;20234;-77
2022/06/18 01:30:04;;;;;;;0.60;0.60;;;23.50;99.90;24.10;101758.00;;;;5079728;28;20218;-77
2022/06/18 01:32:53;;;;;;;1.23;1.13;;;23.50;99.90;23.90;101756.00;;;;5096416;28;20613;-77
2022/06/18 01:35:39;;;;;;;2.08;1.65;;;23.50;99.90;24.00;101753.00;;;;5096223;28;20176;-77
2022/06/18 01:38:24;;;;;;;0.55;0.55;;;23.50;99.90;24.10;101749.00;;;;5096350;28;20176;-77
2022/06/18 01:41:51;;;;;;;3.28;1.23;;;23.50;99.90;24.00;101750.00;;;;5079339;28;20183;-77
2022/06/18 01:44:52;;;;;;;0.93;0.73;;;23.50;99.90;23.70;101701.00;;;;5113331;28;20238;-77
2022/06/18 01:47:35;;;;;;;0.28;0.28;;;23.40;99.90;24.20;101714.00;;;;5096370;28;20175;-76
2022/06/18 01:50:10;;;;;;;0.55;0.55;;;23.50;99.90;24.50;101762.00;;;;5096145;28;20547;-76
2022/06/18 01:53:06;;;;;;;0.30;0.30;;;23.60;99.90;24.10;101752.00;;;;5096360;28;20646;-76
2022/06/18 01:56:02;;;;;;;0.15;0.15;;;23.60;99.90;23.80;101739.00;;;;5096134;28;20185;-76
2022/06/18 01:58:50;;;;;;;1.38;1.30;;;23.40;99.90;24.20;101747.00;;;;5074319;28;20209;-76
2022/06/18 02:01:40;;;;;;;0.57;0.57;;;23.40;99.90;23.70;101747.00;;;;5079220;28;20581;-77
2022/06/18 02:04:26;;;;;;;0.22;0.22;;;23.30;99.90;24.00;101752.00;;;;5095889;28;20180;-76
2022/06/18 02:07:10;;;;;;;0.47;0.47;;;23.30;99.90;24.10;101709.00;;;;5095644;28;20228;-77
2022/06/18 02:09:50;;;;;;;0.10;0.10;;;23.40;99.90;23.80;101760.00;;;;5078794;28;20188;-76
2022/06/18 02:12:39;;;;;;;1.15;0.93;;;23.20;99.90;24.20;101760.00;;;;5112685;28;20227;-77
2022/06/18 02:15:17;;;;;;;1.38;1.27;;;23.30;99.90;23.90;101760.00;;;;5095731;28;20603;-77
2022/06/18 02:18:06;;;;;;;0.30;0.30;;;23.30;99.90;24.10;101752.00;;;;5095866;28;20179;-76
2022/06/18 02:20:42;;;;;;;0.10;0.10;;;23.20;99.90;24.40;101747.00;;;;5079123;28;20188;-77
2022/06/18 02:23:11;;;;;;;0.20;0.20;;;23.40;99.90;24.70;101762.00;;;;5095663;28;20575;-77
2022/06/18 02:25:54;;;;;;;0.22;0.22;;;23.60;99.90;24.20;101748.00;;;;5095717;28;20174;-77
2022/06/18 02:28:30;;;;;;;0.20;0.20;;;23.50;99.90;23.90;101746.00;;;;5095694;28;20203;-76
2022/06/18 02:31:22;;;;;;;0.20;0.20;;;23.20;99.90;23.20;101738.00;;;;5095129;28;20168;-76
2022/06/18 02:34:37;;;;;;;0.55;0.55;;;22.90;99.90;23.20;101737.00;;;;5096169;28;20263;-77
2022/06/18 02:37:26;;;;;;;0.63;0.63;;;22.70;99.90;23.30;101739.00;;;;5084477;28;20307;-77
2022/06/18 02:40:35;;;;;;;0.10;0.10;;;22.80;99.90;23.30;101735.00;;;;5095876;28;20176;-77
2022/06/18 02:43:20;;;;;;;0.15;0.15;;;22.60;99.90;23.10;101731.00;;;;5078135;28;20192;-76
2022/06/18 02:46:22;;;;;;;0.20;0.20;;;22.60;99.90;23.90;101750.00;;;;5095549;28;20271;-76
2022/06/18 02:49:04;;;;;;;0.63;0.63;;;22.90;99.90;23.70;101733.00;;;;5095273;28;20291;-76
2022/06/18 02:51:47;;;;;;;0.22;0.22;;;23.00;99.90;23.20;101722.00;;;;5111972;28;20188;-76
2022/06/18 02:54:31;;;;;;;0.70;0.70;;;22.80;99.90;23.20;101729.00;;;;5095468;28;20285;-76
2022/06/18 02:57:24;;;;;;;0.20;0.20;;;22.70;99.90;23.00;101693.00;;;;5095154;28;20204;-76
2022/06/18 03:00:12;;;;;;;0.52;0.43;;;22.60;99.90;22.90;101680.00;;;;5095453;28;20173;-76
2022/06/18 03:02:59;;;;;;;0.50;0.50;;;22.50;99.90;23.00;101717.00;;;;5078922;28;20180;-76
2022/06/18 03:05:43;;;;;;;0.52;0.52;;;22.50;99.90;23.10;101714.00;;;;5095278;28;20634;-76
2022/06/18 03:08:29;;;;;;;0.82;0.82;;;22.50;99.90;23.60;101723.00;;;;5095046;28;20587;-76
2022/06/18 03:14:06;;;;;;;1.13;1.10;;;22.70;99.90;22.90;101716.00;;;;5097743;28;20187;-77
2022/06/18 03:16:52;;;;;;;0.10;0.10;;;22.50;99.90;23.20;101725.00;;;;5095502;28;20173;-76
2022/06/18 03:19:37;;;;;;;0.10;0.10;;;22.60;99.90;23.20;101723.00;;;;5080858;28;20176;-76
2022/06/18 03:22:23;;;;;;;0.65;0.65;;;22.60;99.90;23.10;101709.00;;;;5098747;28;20630;-77
2022/06/18 03:25:07;;;;;;;0.20;0.20;;;22.50;99.90;23.00;101718.00;;;;5099280;28;20657;-77
2022/06/18 03:27:58;;;;;;;0.10;0.10;;;22.50;99.90;22.90;101705.00;;;;5094732;28;20180;-77
2022/06/18 03:30:42;;;;;;;0.20;0.20;;;22.50;99.90;23.20;101707.00;;;;5095387;28;20646;-76
2022/06/18 03:33:25;;;;;;;0.20;0.20;;;22.50;99.90;23.10;101716.00;;;;5095250;28;20226;-76
2022/06/18 03:36:11;;;;;;;0.10;0.10;;;22.60;99.90;23.20;101715.00;;;;5095065;28;20187;-77
2022/06/18 03:38:54;;;;;;;0.60;0.60;;;22.50;99.90;23.00;101705.00;;;;5095287;28;20195;-76
2022/06/18 03:41:38;;;;;;;1.48;1.42;;;22.50;99.90;22.90;101705.00;;;;5095526;28;20181;-76
2022/06/18 03:44:23;;;;;;;0.20;0.20;;;22.40;99.90;22.70;101687.00;;;;5094605;28;20568;-77
2022/06/18 03:47:13;;;;;;;0.80;0.55;;;22.30;99.90;23.70;101707.00;;;;5095181;28;20173;-76
2022/06/18 03:49:56;;;;;;;0.15;0.15;;;22.50;99.90;23.10;101661.00;;;;5094864;28;20195;-76
2022/06/18 03:52:40;;;;;;;0.43;0.43;;;22.40;99.90;22.80;101694.00;;;;5094919;28;20213;-76
2022/06/18 03:55:17;;;;;;;1.13;0.90;;;22.40;99.90;22.40;101704.00;;;;5094617;28;20176;-76
2022/06/18 03:58:04;;;;;;;0.45;0.45;;;22.20;99.90;22.60;101704.00;;;;5095129;28;20611;-76
2022/06/18 04:00:49;;;;;;;1.48;0.68;;;22.20;99.90;22.40;101687.00;;;;5094952;28;20260;-76
2022/06/18 04:03:33;;;;;;;0.13;0.13;;;22.10;99.90;22.20;101672.00;;;;5094610;28;20173;-77
2022/06/18 04:06:20;;;;;;;1.08;1.08;;;21.90;99.90;22.30;101673.00;;;;5094604;28;20192;-77
2022/06/18 04:09:05;;;;;;;0.32;0.32;;;22.00;99.90;22.90;101681.00;;;;5094713;28;20181;-76
2022/06/18 04:12:09;;;;;;;1.65;1.55;;;22.10;99.90;22.40;101682.00;;;;5094696;28;20291;-76
2022/06/18 04:14:55;;;;;;;1.08;1.08;;;22.10;99.90;22.50;101656.00;;;;5090304;28;20187;-76
2022/06/18 04:17:39;;;;;;;0.25;0.25;;;22.10;99.90;22.20;101680.00;;;;5077783;28;20207;-76
2022/06/18 04:20:30;;;;;;;0.17;0.17;;;22.00;99.90;22.60;101682.00;;;;5094510;28;20185;-77
2022/06/18 04:23:15;;;;;;;0.68;0.68;;;22.10;99.90;22.50;101685.00;;;;5094602;28;20276;-76
2022/06/18 04:25:44;;;;;;;0.40;0.40;;;22.20;99.90;23.20;101692.00;;;;5094589;28;20179;-76
2022/06/18 04:28:30;;;;;;;0.43;0.43;;;22.30;99.90;23.20;101706.00;;;;5094483;28;20185;-77
2022/06/18 04:30:58;;;;;;;0.10;0.10;;;22.50;99.90;23.50;101660.00;;;;5094517;28;20410;-76
2022/06/18 04:33:42;;;;;;;0.10;0.10;;;22.70;99.90;24.10;101707.00;;;;5094223;28;20644;-76
2022/06/18 04:36:35;;;;;;;0.10;0.10;;;22.90;99.90;24.20;101718.00;;;;5094276;28;20181;-77
2022/06/18 04:39:19;;;;;;;0.10;0.10;;;23.30;99.90;23.50;101706.00;;;;5094238;28;20238;-77
2022/06/18 04:42:03;;;;;;;0.10;0.10;;;23.00;99.90;25.00;101728.00;;;;5094167;28;20582;-76
2022/06/18 04:44:49;;;;;;;0.40;0.40;;;23.50;99.90;24.80;101703.00;;;;5093870;28;20219;-76
2022/06/18 04:47:33;;;;;;;0.10;0.10;;;23.90;99.90;23.60;101701.00;;;;5093629;28;20184;-76
2022/06/18 04:50:20;;;;;;;0.10;0.10;;;23.30;99.90;24.20;101677.00;;;;5094259;28;20211;-76
2022/06/18 04:53:08;;;;;;;0.45;0.45;;;23.30;99.90;24.30;101717.00;;;;5094194;28;20252;-76
2022/06/18 04:55:41;;;;;;;0.20;0.20;;;23.40;99.90;24.90;101724.00;;;;5076804;28;20203;-76
2022/06/18 04:58:28;;;;;;;0.88;0.60;;;23.80;99.90;24.60;101732.00;;;;5094150;28;20188;-78
2022/06/18 05:00:56;;;;;;;3.20;0.68;;;23.80;99.90;24.10;101735.00;;;;5092071;28;20188;-77
2022/06/18 05:03:40;;;;;;;0.10;0.10;;;23.80;99.90;23.50;101684.00;;;;5093649;28;20185;-76
2022/06/18 05:06:41;;;;;;;0.22;0.22;;;23.20;99.90;24.00;101726.00;;;;5076535;28;20180;-77
2022/06/18 05:09:27;;;;;;;1.42;1.35;;;23.50;99.90;23.90;101705.00;;;;5093290;28;20703;-76
2022/06/18 05:12:15;;;;;;;0.10;0.10;;;23.30;99.90;25.00;101737.00;;;;5093372;28;20201;-76
2022/06/18 05:14:59;;;;;;;0.20;0.20;;;23.70;99.90;25.10;101747.00;;;;5093348;28;20187;-76
2022/06/18 05:17:45;;;;;;;0.10;0.10;;;24.10;99.90;24.30;101696.00;;;;5093344;28;20234;-77
2022/06/18 05:20:31;;;;;;;0.20;0.20;;;24.00;99.90;26.20;101761.00;;;;5093597;28;20177;-77
2022/06/18 05:23:18;;;;;;;0.20;0.20;;;24.70;99.90;25.30;101752.00;;;;5076259;28;20187;-76
2022/06/18 05:25:57;;;;;;;0.10;0.10;;;24.80;99.90;25.00;101734.00;;;;5093495;28;20243;-76
2022/06/18 05:28:41;;;;;;;12.57;0.77;;;24.40;99.90;26.00;101723.00;;;;5093357;28;20180;-77
2022/06/18 05:31:24;;;;;;;0.85;0.68;;;24.90;99.90;25.80;101763.00;;;;5092820;28;20192;-77
2022/06/18 05:34:08;;;;;;;14.60;1.05;;;24.90;99.90;25.20;101749.00;;;;5093370;28;20605;-76
2022/06/18 05:36:54;;;;;;;0.35;0.35;;;24.90;99.90;24.70;101726.00;;;;5092829;28;20219;-77
2022/06/18 05:39:38;;;;;;;0.32;0.32;;;24.50;99.90;25.50;101734.00;;;;5092867;28;20631;-77
2022/06/18 05:42:25;;;;;;;1.48;1.00;;;24.50;99.90;24.80;101732.00;;;;5092111;28;20231;-77
2022/06/18 05:45:11;;;;;;;3.47;2.58;;;24.50;99.90;24.40;101727.00;;;;5092676;28;20177;-77
2022/06/18 05:47:54;;;;;;;1.50;0.90;;;24.10;99.90;24.30;101733.00;;;;5093208;28;20224;-77
2022/06/18 05:50:38;;;;;;;0.10;0.10;;;24.00;99.90;26.10;101741.00;;;;5092931;28;20173;-77
2022/06/18 05:53:22;;;;;;;0.10;0.10;;;24.60;99.90;26.70;101749.00;;;;5092644;28;20283;-78
2022/06/18 05:56:05;;;;;;;2.05;1.95;;;25.60;99.90;25.80;101739.00;;;;5092847;28;20230;-76
2022/06/18 05:58:49;;;;;;;1.38;1.02;;;25.20;99.90;24.70;101723.00;;;;5093023;28;20180;-76
2022/06/18 06:01:36;;;;;;;1.10;0.57;;;24.80;99.90;25.90;101705.00;;;;5092429;28;20594;-77
2022/06/18 06:04:19;;;;;;;1.02;0.90;;;24.90;99.90;26.00;101730.00;;;;5092467;28;20188;-76
2022/06/18 06:07:06;;;;;;;3.47;1.95;;;25.40;99.90;26.00;101745.00;;;;5092500;28;20181;-76
2022/06/18 06:12:47;;;;;;;0.30;0.30;;;25.90;99.90;27.90;101752.00;;;;5092536;28;20580;-77
2022/06/18 06:15:31;;;;;;;2.25;1.55;;;26.70;99.90;27.70;101768.00;;;;5092304;28;20200;-76
2022/06/18 06:18:17;;;;;;;0.43;0.43;;;26.90;99.90;28.70;101768.00;;;;5092419;28;20210;-76
2022/06/18 06:20:57;;;;;;;0.60;0.60;;;27.40;99.90;28.10;101769.00;;;;5075524;28;20746;-76
2022/06/18 06:23:30;;;;;;;0.65;0.65;;;27.60;99.90;26.80;101760.00;;;;5092078;28;20586;-76
2022/06/18 06:26:21;;;;;;;0.13;0.13;;;26.60;99.90;27.00;101760.00;;;;5092554;28;20218;-76
2022/06/18 06:29:04;;;;;;;0.20;0.20;;;26.20;99.90;28.00;101755.00;;;;5092234;28;20640;-77
2022/06/18 06:31:33;;;;;;;1.02;1.02;;;27.10;99.90;26.80;101763.00;;;;5091813;28;20299;-77
2022/06/18 06:34:02;;;;;;;1.15;0.82;;;26.50;99.90;27.60;101759.00;;;;5075595;28;20219;-77
2022/06/18 06:36:46;;;;;;;1.80;1.70;;;26.80;99.90;27.60;101771.00;;;;5091899;28;20647;-76
2022/06/18 06:39:32;;;;;;;0.10;0.10;;;26.60;99.90;29.20;101768.00;;;;5093670;28;20188;-76
2022/06/18 06:42:21;;;;;;;0.10;0.10;;;27.80;99.90;26.80;101740.00;;;;5092142;28;20202;-76
2022/06/18 06:45:10;;;;;;;0.85;0.85;;;26.90;99.90;28.10;101779.00;;;;5090122;28;20642;-77
2022/06/18 06:47:55;;;;;;;6.97;1.95;;;27.00;99.90;28.30;101776.00;;;;5091773;28;20203;-77
2022/06/18 06:50:40;;;;;;;4.80;2.22;;;27.10;99.90;27.00;101751.00;;;;5091929;28;20187;-78
2022/06/18 06:53:24;;;;;;;0.17;0.17;;;26.90;99.90;28.90;101781.00;;;;5092869;28;20208;-77
2022/06/18 06:59:04;;;;;;;0.10;0.10;;;29.30;99.90;30.30;101782.00;;;;5096250;28;20183;-77
2022/06/18 07:01:47;;;;;;;0.20;0.20;;;29.20;99.90;29.70;101781.00;;;;5096021;28;20634;-78
2022/06/18 07:04:16;;;;;;;5.28;3.95;;;29.50;99.90;27.60;101786.00;;;;5096373;28;20176;-78
2022/06/18 07:07:02;;;;;;;1.40;1.30;;;28.00;99.90;27.10;101774.00;;;;5095835;28;20180;-77
2022/06/18 07:09:45;;;;;;;2.20;2.00;;;27.00;99.90;30.80;101771.00;;;;5094046;28;20185;-78
2022/06/18 07:12:29;;;;;;;3.42;2.72;;;28.70;99.90;30.80;101773.00;;;;5095677;28;20224;-78
2022/06/18 07:15:15;;;;;;;1.88;1.65;;;29.50;99.90;32.80;101760.00;;;;5096190;28;20161;-78
2022/06/18 07:17:59;;;;;;;1.95;1.58;;;30.90;99.90;29.90;101786.00;;;;5095473;28;20204;-78
2022/06/18 07:20:49;;;;;;;0.32;0.32;;;30.00;99.90;32.60;101746.00;;;;5095584;28;20234;-78
2022/06/18 07:23:33;;;;;;;2.10;2.00;;;30.90;99.90;32.80;101748.00;;;;5093658;28;20161;-78
2022/06/18 07:26:19;;;;;;;0.95;0.95;;;31.40;99.90;33.10;101747.00;;;;5095836;28;20654;-77
2022/06/18 07:29:06;;;;;;;0.60;0.60;;;31.40;99.90;32.90;101754.00;;;;5095457;28;20200;-77
2022/06/18 07:31:50;;;;;;;3.20;1.70;;;32.20;99.90;32.00;101770.00;;;;5095266;28;20215;-78
2022/06/18 07:34:18;;;;;;;0.10;0.10;;;31.50;99.90;30.10;101752.00;;;;5095371;28;20177;-78
2022/06/18 07:37:03;;;;;;;1.50;0.93;;;30.60;99.90;30.50;101742.00;;;;5095469;28;20187;-77
2022/06/18 07:39:46;;;;;;;0.50;0.50;;;29.80;99.90;29.80;101768.00;;;;5095581;28;20185;-78
2022/06/18 07:42:22;;;;;;;16.27;3.15;;;29.50;99.90;30.00;101760.00;;;;5095071;28;20189;-78
2022/06/18 07:45:16;;;;;;;1.27;1.27;;;29.60;99.90;30.60;101738.00;;;;5095701;28;20177;-77
2022/06/18 07:48:04;;;;;;;0.10;0.10;;;29.20;99.90;29.10;101753.00;;;;5094895;28;20590;-77
2022/06/18 07:50:43;;;;;;;0.10;0.10;;;29.40;99.90;30.90;101741.00;;;;5093370;28;20177;-78
2022/06/18 07:53:32;;;;;;;0.63;0.52;;;29.50;99.90;30.20;101752.00;;;;5094902;28;20212;-77
2022/06/18 07:56:19;;;;;;;0.75;0.75;;;29.60;99.90;30.60;101755.00;;;;5094849;28;20275;-77
2022/06/18 07:59:02;;;;;;;0.17;0.17;;;30.00;99.90;31.20;101717.00;;;;5094948;28;20231;-78
2022/06/18 08:01:45;;;;;;;0.10;0.10;;;30.30;99.90;32.20;101749.00;;;;5094917;28;20256;-78
2022/06/18 08:04:29;;;;;;;0.10;0.10;;;30.80;99.90;29.90;101716.00;;;;5094505;28;20215;-77
2022/06/18 08:07:12;;;;;;;0.38;0.38;;;29.90;99.90;32.30;101740.00;;;;5094883;28;20173;-78
2022/06/18 08:09:58;;;;;;;0.10;0.10;;;30.80;99.90;32.60;101711.00;;;;5094418;28;20215;-77
2022/06/18 08:12:42;;;;;;;0.10;0.10;;;31.30;99.90;32.20;101737.00;;;;5094400;28;20208;-75
2022/06/18 08:15:26;;;;;;;0.10;0.10;;;31.10;99.90;32.70;101734.00;;;;5094540;28;20280;-75
2022/06/18 08:18:09;;;;;;;0.00;0.00;;;32.00;99.90;32.60;101708.00;;;;5094318;28;20238;-75
2022/06/18 08:20:58;;;;;;;0.10;0.10;;;32.40;99.90;30.30;101749.00;;;;5094330;28;20200;-75
2022/06/18 08:23:42;;;;;;;1.17;1.17;;;30.40;99.90;30.10;101753.00;;;;5094090;28;20201;-75
2022/06/18 08:26:26;;;;;;;0.20;0.20;;;29.80;99.90;29.80;101751.00;;;;5094373;28;20222;-78
2022/06/18 08:29:06;;;;;;;0.10;0.10;;;29.60;99.90;30.90;101751.00;;;;5094427;28;20613;-77
2022/06/18 08:31:52;;;;;;;0.22;0.22;;;30.00;99.90;32.30;101739.00;;;;5094131;28;20677;-78
2022/06/18 08:34:29;;;;;;;0.73;0.73;;;30.80;99.90;31.70;101735.00;;;;5094284;28;20189;-78
2022/06/18 08:37:13;;;;;;;0.30;0.30;;;31.20;99.90;33.90;101707.00;;;;5094659;28;20187;-78
2022/06/18 08:39:46;;;;;;;0.10;0.10;;;32.30;99.90;34.30;101719.00;;;;5093939;28;20255;-78
2022/06/18 08:42:41;;;;;;;0.38;0.38;;;33.40;98.70;34.40;101721.00;;;;5094065;28;20234;-77
2022/06/18 08:45:40;;;;;;;0.15;0.15;;;33.50;98.00;36.30;101724.00;;;;5094214;28;20592;-77
2022/06/18 08:48:37;;;;;;;0.13;0.13;;;34.40;98.00;35.60;101697.00;;;;5094317;28;20177;-77
2022/06/18 08:51:12;;;;;;;0.30;0.25;;;35.00;96.10;32.80;101732.00;;;;5093690;28;20181;-75
2022/06/18 08:53:54;;;;;;;0.57;0.57;;;33.50;96.20;31.10;101747.00;;;;5093872;28;20546;-75
2022/06/18 08:56:51;;;;;;;1.45;1.27;;;32.30;96.90;30.30;101749.00;;;;5093902;28;20545;-74
2022/06/18 08:59:38;;;;;;;0.10;0.10;;;30.80;98.70;31.40;101749.00;;;;5094167;28;20227;-76
2022/06/18 09:02:37;;;;;;;0.10;0.10;;;30.50;99.90;30.90;101746.00;;;;5093933;28;20571;-75
2022/06/18 09:05:19;;;;;;;2.10;2.00;;;30.10;99.90;31.70;101737.00;;;;5093501;28;20177;-74
2022/06/18 09:07:52;;;;;;;0.10;0.10;;;31.00;99.90;34.40;101698.00;;;;5093362;28;20215;-75
2022/06/18 09:10:32;;;;;;;1.67;1.58;;;32.40;99.70;32.00;101730.00;;;;5093335;28;20200;-75
2022/06/18 09:13:19;;;;;;;0.57;0.57;;;32.00;98.60;30.90;101741.00;;;;5093491;28;20215;-74
2022/06/18 09:16:00;;;;;;;0.40;0.40;;;31.60;98.60;30.70;101742.00;;;;5092796;28;20181;-74
2022/06/18 09:18:57;;;;;;;0.38;0.38;;;30.60;99.80;34.90;101705.00;;;;5093545;28;20215;-75
2022/06/18 09:21:52;;;;;;;0.38;0.38;;;32.50;99.20;36.30;101709.00;;;;5076254;28;20277;-75
2022/06/18 09:24:34;;;;;;;0.35;0.35;;;34.40;97.10;34.50;101704.00;;;;5059295;28;20193;-75
2022/06/18 09:27:23;;;;;;;0.88;0.88;;;33.90;95.70;36.10;101697.00;;;;5093600;28;20210;-75
2022/06/18 09:30:06;;;;;;;0.15;0.15;;;35.00;94.80;35.00;101705.00;;;;5076009;28;20181;-74
2022/06/18 09:32:54;;;;;;;0.17;0.17;;;35.00;94.50;33.40;101716.00;;;;5092785;28;20216;-74
2022/06/18 09:35:28;;;;;;;2.45;1.27;;;34.30;94.60;31.70;101725.00;;;;5093039;28;20188;-75
2022/06/18 09:38:18;;;;;;;0.25;0.25;;;32.40;95.80;31.80;101733.00;;;;5092928;28;20225;-76
2022/06/18 09:40:57;;;;;;;4.60;1.85;;;31.00;97.80;35.20;101683.00;;;;5092777;28;20717;-77
2022/06/18 09:43:45;;;;;;;0.20;0.20;;;33.10;96.50;35.60;101704.00;;;;5092776;28;20187;-77
2022/06/18 09:46:40;;;;;;;1.70;1.60;;;34.20;95.30;36.30;101704.00;;;;5093076;28;20189;-74
2022/06/18 09:49:29;;;;;;;0.17;0.17;;;35.50;93.10;35.80;101690.00;;;;5093117;28;20204;-74
2022/06/18 09:52:11;;;;;;;0.52;0.52;;;35.40;93.20;37.70;101683.00;;;;5075881;28;20291;-74
2022/06/18 09:55:02;;;;;;;0.25;0.25;;;36.30;92.10;35.00;101694.00;;;;5092831;28;20180;-74
2022/06/18 09:57:54;;;;;;;0.30;0.30;;;36.10;90.90;37.70;101686.00;;;;5092814;28;20215;-74
2022/06/18 10:00:40;;;;;;;3.45;1.67;;;36.40;91.50;37.70;101687.00;;;;5092916;28;20264;-77
2022/06/18 10:06:55;;;;;;;0.57;0.57;;;35.00;88.30;33.30;101699.00;;;;5078226;28;20237;-74
2022/06/18 10:09:42;;;;;;;0.10;0.10;;;33.10;91.50;34.60;101680.00;;;;5092436;28;20173;-75
2022/06/18 10:12:39;;;;;;;0.03;0.03;;;33.60;91.60;36.10;101683.00;;;;5092499;28;20201;-74
2022/06/18 10:15:28;;;;;;;0.73;0.73;;;34.40;91.50;35.50;101676.00;;;;5058924;28;20223;-74
2022/06/18 10:18:31;;;;;;;0.10;0.10;;;34.20;91.20;34.50;101682.00;;;;5092274;28;20177;-74
2022/06/18 10:33:27;;;;;;;0.08;0.08;;;35.20;88.80;37.80;101646.00;;;;5152499;27;20648;-77
2022/06/18 10:36:08;;;;;;;0.10;0.10;;;36.40;86.80;35.50;101650.00;;;;5134531;27;20261;-77
2022/06/18 10:39:34;;;;;;;3.00;1.83;;;35.50;85.90;35.20;101645.00;;;;5134598;27;20159;-77
2022/06/18 10:42:19;;;;;;;6.75;2.95;;;34.70;86.20;33.30;101649.00;;;;5048536;28;20221;-77
2022/06/18 10:44:51;;;;;;;0.10;0.10;;;33.30;88.80;34.30;101638.00;;;;5048387;28;20221;-77
2022/06/18 10:47:43;;;;;;;0.10;0.10;;;33.20;90.20;35.70;101618.00;;;;5048391;28;20163;-77
2022/06/18 10:50:21;;;;;;;0.98;0.88;;;34.50;88.60;34.90;101598.00;;;;5031872;28;20256;-75
2022/06/18 10:53:13;;;;;;;0.32;0.32;;;35.00;86.50;34.90;101634.00;;;;5106898;27;20714;-75
2022/06/18 10:55:56;;;;;;;0.45;0.45;;;34.00;89.20;34.30;101631.00;;;;5117221;27;20210;-75
2022/06/18 10:58:56;;;;;;;0.80;0.65;;;34.00;88.00;36.00;101627.00;;;;5116160;27;20647;-75
2022/06/18 11:01:47;;;;;;;0.05;0.05;;;34.70;89.00;38.20;101607.00;;;;5116427;27;20198;-75
2022/06/18 11:04:29;;;;;;;1.75;0.82;;;36.50;86.90;35.50;101623.00;;;;5116546;27;20183;-75
2022/06/18 11:07:31;;;;;;;6.78;2.05;;;35.30;85.70;35.10;101618.00;;;;5116652;27;20619;-75
2022/06/18 11:10:04;;;;;;;1.40;1.30;;;35.50;84.20;35.70;101590.00;;;;5133697;27;20163;-75
2022/06/18 11:12:39;;;;;;;0.10;0.10;;;35.30;84.20;34.90;101619.00;;;;5115986;27;20282;-75
2022/06/18 11:15:28;;;;;;;0.20;0.20;;;34.20;87.00;35.80;101615.00;;;;5116383;27;20182;-75
2022/06/18 11:18:19;;;;;;;8.32;7.97;;;34.60;88.30;36.30;101601.00;;;;5133442;27;20174;-75
2022/06/18 11:21:05;;;;;;;1.50;1.15;;;35.60;85.70;33.80;101612.00;;;;5117738;27;20178;-75
2022/06/18 11:24:24;;;;;;;0.40;0.40;;;34.70;86.20;35.10;101607.00;;;;5116104;27;20181;-77
2022/06/18 11:26:55;;;;;;;0.00;0.00;;;34.00;88.60;36.00;101591.00;;;;5111957;27;20179;-74
2022/06/18 11:30:05;;;;;;;0.20;0.20;;;35.30;89.90;36.70;101587.00;;;;5132712;27;20706;-74
2022/06/18 11:32:49;;;;;;;0.15;0.15;;;36.10;87.00;38.90;101549.00;;;;5115315;27;20305;-75
2022/06/18 11:35:28;;;;;;;1.38;0.52;;;37.40;84.10;39.60;101557.00;;;;5115472;27;20190;-75
2022/06/18 11:38:14;;;;;;;0.10;0.10;;;38.40;82.80;40.10;101550.00;;;;5116085;27;20178;-75
2022/06/18 11:41:12;;;;;;;0.28;0.28;;;39.00;81.60;40.70;101549.00;;;;5115759;27;20175;-75
2022/06/18 11:44:06;;;;;;;0.10;0.10;;;39.50;79.30;40.20;101537.00;;;;5092781;27;20179;-75
2022/06/18 11:46:55;;;;;;;1.92;1.83;;;39.60;77.20;33.50;101551.00;;;;5102385;27;20190;-75
2022/06/18 11:49:30;;;;;;;0.10;0.10;;;35.90;79.50;35.40;101552.00;;;;5118299;27;20697;-75
2022/06/18 11:52:39;;;;;;;0.10;0.10;;;34.70;83.40;38.10;101550.00;;;;5101856;27;20680;-75
2022/06/18 11:55:28;;;;;;;0.10;0.10;;;36.10;82.10;38.80;101541.00;;;;5119467;27;20553;-75
2022/06/18 11:58:40;;;;;;;0.20;0.20;;;37.30;80.50;39.60;101533.00;;;;5119573;27;20308;-75
2022/06/18 12:01:30;;;;;;;0.10;0.10;;;38.20;79.30;37.60;101540.00;;;;5118897;27;20163;-75
2022/06/18 12:04:36;;;;;;;0.10;0.10;;;37.20;78.70;38.90;101536.00;;;;5118489;27;20190;-75
2022/06/18 12:07:35;;;;;;;0.20;0.20;;;37.30;79.80;35.00;101527.00;;;;5101545;27;20647;-75
2022/06/18 12:10:56;;;;;;;0.10;0.10;;;35.40;81.00;36.60;101526.00;;;;5101921;27;20180;-75
2022/06/18 12:13:34;;;;;;;4.55;4.25;;;35.30;81.90;35.40;101507.00;;;;5102777;27;20187;-75
2022/06/18 12:16:40;;;;;;;0.10;0.10;;;35.10;82.10;35.10;101533.00;;;;5118582;27;20548;-75
2022/06/18 12:19:29;;;;;;;0.40;0.40;;;34.70;82.40;35.50;101528.00;;;;5101247;27;20171;-74
2022/06/18 12:22:13;;;;;;;0.20;0.20;;;34.60;82.90;36.00;101522.00;;;;5101353;27;20218;-75
2022/06/18 12:25:06;;;;;;;0.30;0.30;;;34.80;83.30;36.30;101526.00;;;;5118055;27;20179;-75
2022/06/18 12:28:18;;;;;;;1.42;1.27;;;35.10;84.40;36.00;101531.00;;;;5118062;27;20733;-76
2022/06/18 12:31:17;;;;;;;1.08;0.90;;;35.00;83.40;35.60;101524.00;;;;5117845;27;20548;-75
2022/06/18 12:34:05;;;;;;;0.10;0.10;;;34.60;85.00;35.20;101513.00;;;;5117972;27;20180;-75
2022/06/18 12:36:43;;;;;;;0.10;0.10;;;34.30;84.40;35.50;101511.00;;;;5101484;27;20292;-75
2022/06/18 12:40:14;;;;;;;0.15;0.15;;;34.30;84.50;35.80;101508.00;;;;5136325;27;20176;-75